Time;durP1;ratioP1;P1;durP2;ratioP2;P2;SDS_P1;SDS_P2;PMS_P1;PMS_P2;Temp;Humidity;BMP_temperature;BMP_pressure;BME280_temperature;BME280_humidity;BME280_pressure;Samples;Min_cycle;Max_cycle;Signal;HPM_P1;HPM_P2
2023/10/01 00:01:40;;;;;;;6.25;2.92;;;10.40;99.90;;;;;;5063883;28;20033;-33
2023/10/01 00:04:07;;;;;;;6.05;3.22;;;10.50;99.90;;;;;;5060973;28;20056;-32
2023/10/01 00:06:34;;;;;;;8.18;3.70;;;10.40;99.90;;;;;;5064178;28;20033;-32
2023/10/01 00:09:01;;;;;;;9.65;3.45;;;10.30;99.90;;;;;;5056555;28;20038;-32
2023/10/01 00:11:27;;;;;;;8.60;4.40;;;10.30;99.90;;;;;;5061254;28;20029;-34
2023/10/01 00:13:53;;;;;;;7.63;3.50;;;10.30;99.90;;;;;;5063698;28;20130;-31
2023/10/01 00:16:19;;;;;;;8.63;3.70;;;10.20;99.90;;;;;;5061009;28;20082;-38
2023/10/01 00:18:47;;;;;;;8.10;3.40;;;10.20;99.90;;;;;;5061598;28;20068;-32
2023/10/01 00:21:13;;;;;;;4.38;3.38;;;10.20;99.90;;;;;;5062410;28;20237;-32
2023/10/01 00:23:39;;;;;;;7.88;3.47;;;10.10;99.90;;;;;;5064737;28;20044;-33
2023/10/01 00:26:05;;;;;;;8.50;3.88;;;10.00;99.90;;;;;;5064658;28;20028;-32
2023/10/01 00:28:30;;;;;;;6.38;3.15;;;9.80;99.90;;;;;;5063067;28;20025;-37
2023/10/01 00:30:57;;;;;;;3.75;2.40;;;9.70;99.90;;;;;;5063772;28;20374;-32
2023/10/01 00:33:22;;;;;;;5.07;2.90;;;9.80;99.90;;;;;;5061253;28;20044;-31
2023/10/01 00:35:48;;;;;;;4.57;3.33;;;9.70;99.90;;;;;;5065389;28;20134;-32
2023/10/01 00:38:16;;;;;;;5.45;3.00;;;9.60;99.90;;;;;;5058913;28;20363;-32
2023/10/01 00:40:44;;;;;;;6.18;2.95;;;9.50;99.90;;;;;;5062694;28;20025;-33
2023/10/01 00:43:11;;;;;;;;;;;9.60;99.90;;;;;;5058655;28;20060;-35
2023/10/01 00:45:36;;;;;;;4.97;2.80;;;9.70;99.90;;;;;;5063625;28;19990;-32
2023/10/01 00:48:06;;;;;;;4.85;3.08;;;9.70;99.90;;;;;;5057568;28;20517;-36
2023/10/01 00:50:32;;;;;;;6.32;3.20;;;9.70;99.90;;;;;;5061669;28;20634;-32
2023/10/01 00:52:58;;;;;;;7.28;3.58;;;9.80;99.90;;;;;;5062205;28;20067;-32
2023/10/01 00:55:24;;;;;;;5.93;2.90;;;9.80;99.90;;;;;;5073516;28;20021;-31
2023/10/01 00:57:53;;;;;;;6.53;3.67;;;9.90;99.90;;;;;;5060672;28;20051;-32
2023/10/01 01:00:19;;;;;;;7.40;3.38;;;9.70;99.90;;;;;;5060295;28;20028;-32
2023/10/01 01:03:08;;;;;;;6.68;3.58;;;9.50;99.90;;;;;;5060933;28;20032;-30
2023/10/01 01:05:41;;;;;;;5.18;3.03;;;9.50;99.90;;;;;;5064444;28;20032;-31
2023/10/01 01:08:33;;;;;;;7.78;3.47;;;9.50;99.90;;;;;;5067060;28;20772;-30
2023/10/01 01:11:03;;;;;;;6.40;3.05;;;9.60;99.90;;;;;;5060726;28;20029;-37
2023/10/01 01:13:30;;;;;;;4.05;2.75;;;9.60;99.90;;;;;;5065347;28;20033;-32
2023/10/01 01:16:00;;;;;;;5.47;3.10;;;9.50;99.90;;;;;;5062141;28;20060;-33
2023/10/01 01:18:26;;;;;;;7.30;3.20;;;9.50;99.90;;;;;;5059810;28;20036;-32
2023/10/01 01:20:58;;;;;;;6.05;3.50;;;9.50;99.90;;;;;;5067472;28;20034;-30
2023/10/01 01:23:24;;;;;;;3.58;2.17;;;9.20;99.90;;;;;;5061040;28;20049;-29
2023/10/01 01:25:52;;;;;;;3.50;2.40;;;9.00;99.90;;;;;;5060190;28;20056;-29
2023/10/01 01:28:27;;;;;;;;;;;9.10;99.90;;;;;;5060385;28;20028;-34
2023/10/01 01:30:56;;;;;;;5.93;2.25;;;9.10;99.90;;;;;;5063866;28;19920;-30
2023/10/01 01:33:26;;;;;;;5.75;3.92;;;9.10;99.90;;;;;;5059148;28;20616;-30
2023/10/01 01:35:54;;;;;;;5.30;3.90;;;9.10;99.90;;;;;;5063444;28;20505;-30
2023/10/01 01:38:22;;;;;;;8.15;2.90;;;9.20;99.90;;;;;;5060936;28;20086;-35
2023/10/01 01:40:51;;;;;;;7.93;2.83;;;9.20;99.90;;;;;;5056894;28;20494;-30
2023/10/01 01:43:21;;;;;;;6.35;3.17;;;9.30;99.90;;;;;;5062216;28;20055;-29
2023/10/01 01:45:54;;;;;;;12.05;3.72;;;9.30;99.90;;;;;;5061784;28;20114;-31
2023/10/01 01:48:21;;;;;;;6.05;3.42;;;9.40;99.90;;;;;;5062944;28;20024;-34
2023/10/01 01:50:54;;;;;;;8.20;3.67;;;9.40;99.90;;;;;;5061644;28;20032;-29
2023/10/01 01:53:20;;;;;;;6.65;3.80;;;9.40;99.90;;;;;;5061726;28;20028;-34
2023/10/01 01:55:47;;;;;;;6.25;3.28;;;9.20;99.90;;;;;;5060635;28;20032;-30
2023/10/01 01:58:15;;;;;;;4.93;2.97;;;9.20;99.90;;;;;;5061706;28;20036;-33
2023/10/01 02:01:01;;;;;;;6.03;3.35;;;9.10;99.90;;;;;;5066415;28;20397;-30
2023/10/01 02:03:27;;;;;;;5.10;3.17;;;8.90;99.90;;;;;;5064155;28;20075;-30
2023/10/01 02:05:53;;;;;;;4.82;2.88;;;9.00;99.90;;;;;;5063631;28;20580;-31
2023/10/01 02:08:25;;;;;;;4.65;3.03;;;9.10;99.90;;;;;;5062014;28;20027;-33
2023/10/01 02:10:52;;;;;;;6.05;2.97;;;9.10;99.90;;;;;;5064563;28;20025;-30
2023/10/01 02:13:18;;;;;;;4.78;3.13;;;9.10;99.90;;;;;;5059636;28;20089;-37
2023/10/01 02:15:46;;;;;;;5.32;3.35;;;9.20;99.90;;;;;;5061412;28;20045;-39
2023/10/01 02:18:17;;;;;;;6.35;3.22;;;9.10;99.90;;;;;;5059550;28;20067;-39
2023/10/01 02:20:51;;;;;;;6.20;3.70;;;9.10;99.90;;;;;;5061134;28;20068;-37
2023/10/01 02:23:26;;;;;;;5.40;3.30;;;9.10;99.90;;;;;;5059906;28;20489;-39
2023/10/01 02:26:00;;;;;;;7.20;3.60;;;9.10;99.90;;;;;;5057364;28;20029;-37
2023/10/01 02:28:32;;;;;;;7.85;3.80;;;9.20;99.90;;;;;;5057342;28;20040;-38
2023/10/01 02:31:00;;;;;;;6.15;3.22;;;9.10;99.90;;;;;;5057244;28;20032;-39
2023/10/01 02:33:55;;;;;;;5.68;3.53;;;9.00;99.90;;;;;;5062352;28;20111;-38
2023/10/01 02:36:12;;;;;;;7.70;3.50;;;8.90;99.90;;;;;;5062526;28;20037;-39
2023/10/01 02:38:45;;;;;;;8.40;4.30;;;9.00;99.90;;;;;;5058561;28;20041;-37
2023/10/01 02:41:15;;;;;;;6.82;3.63;;;8.90;99.90;;;;;;5061221;28;20040;-39
2023/10/01 02:43:41;;;;;;;7.60;3.60;;;8.90;99.90;;;;;;5053544;28;20029;-38
2023/10/01 02:46:12;;;;;;;9.07;4.35;;;8.80;99.90;;;;;;5059292;28;20588;-37
2023/10/01 02:48:42;;;;;;;9.63;4.30;;;8.70;99.90;;;;;;5055781;28;20027;-38
2023/10/01 02:51:14;;;;;;;8.73;3.88;;;8.70;99.90;;;;;;5059200;28;20025;-39
2023/10/01 02:56:33;;;;;;;8.50;4.18;;;8.70;99.90;;;;;;5055868;28;20064;-37
2023/10/01 02:59:11;;;;;;;7.10;3.50;;;8.70;99.90;;;;;;5057721;28;20029;-39
2023/10/01 03:01:38;;;;;;;;;;;8.70;99.90;;;;;;5059863;28;20037;-37
2023/10/01 03:04:16;;;;;;;6.85;3.42;;;8.70;99.90;;;;;;5060020;28;20404;-39
2023/10/01 03:06:52;;;;;;;5.97;3.58;;;8.70;99.90;;;;;;5057624;28;20489;-39
2023/10/01 03:09:34;;;;;;;5.78;4.00;;;8.70;99.90;;;;;;5060824;28;20032;-39
2023/10/01 03:17:38;;;;;;;7.80;3.70;;;8.70;99.90;;;;;;5058006;28;20042;-39
2023/10/01 03:22:53;;;;;;;5.70;3.90;;;8.80;99.90;;;;;;5058223;28;20043;-39
2023/10/01 03:25:28;;;;;;;7.47;3.92;;;8.90;99.90;;;;;;5060889;28;20032;-35
2023/10/01 03:27:59;;;;;;;5.40;3.45;;;8.90;99.90;;;;;;5058523;28;20041;-39
2023/10/01 03:30:31;;;;;;;7.82;4.00;;;8.90;99.90;;;;;;5065518;28;20504;-39
2023/10/01 03:33:07;;;;;;;6.47;3.85;;;8.90;99.90;;;;;;5064197;28;20409;-39
2023/10/01 03:35:34;;;;;;;8.55;3.78;;;8.90;99.90;;;;;;5069827;28;20113;-36
2023/10/01 03:38:10;;;;;;;8.88;3.58;;;8.90;99.90;;;;;;5065537;28;20033;-38
2023/10/01 03:40:58;;;;;;;5.07;3.00;;;8.80;99.90;;;;;;5061956;28;20031;-39
2023/10/01 03:43:31;;;;;;;4.05;2.65;;;8.70;99.90;;;;;;5064056;28;20021;-39
2023/10/01 03:46:06;;;;;;;5.88;3.25;;;8.70;99.90;;;;;;5063753;28;20402;-39
2023/10/01 03:48:57;;;;;;;5.65;2.97;;;8.70;99.90;;;;;;5059455;28;20025;-39
2023/10/01 03:51:28;;;;;;;4.22;2.72;;;8.50;99.90;;;;;;5059460;28;20079;-35
2023/10/01 03:53:59;;;;;;;5.38;2.97;;;8.30;99.90;;;;;;5063427;28;20028;-39
2023/10/01 03:56:30;;;;;;;6.00;3.78;;;8.30;99.90;;;;;;5059736;28;20029;-39
2023/10/01 03:58:56;;;;;;;7.47;4.05;;;8.30;99.90;;;;;;5061945;28;20036;-39
2023/10/01 04:01:33;;;;;;;8.05;3.70;;;8.30;99.90;;;;;;5064905;28;20090;-39
2023/10/01 04:04:00;;;;;;;7.25;4.28;;;8.40;99.90;;;;;;5061654;28;20420;-38
2023/10/01 04:06:27;;;;;;;9.15;3.88;;;8.40;99.90;;;;;;5059173;28;20037;-39
2023/10/01 04:08:55;;;;;;;6.53;3.83;;;8.30;99.90;;;;;;5057806;28;20032;-39
2023/10/01 04:11:41;;;;;;;7.75;3.78;;;8.40;99.90;;;;;;5064941;28;20101;-37
2023/10/01 04:14:10;;;;;;;7.28;4.32;;;8.40;99.90;;;;;;5059556;28;20098;-39
2023/10/01 04:16:36;;;;;;;;;;;8.30;99.90;;;;;;5060249;28;20481;-39
2023/10/01 04:19:02;;;;;;;6.57;3.15;;;8.30;99.90;;;;;;5060356;28;19962;-37
2023/10/01 04:21:28;;;;;;;8.73;3.70;;;8.40;99.90;;;;;;5059081;28;20037;-38
2023/10/01 04:23:54;;;;;;;11.65;4.90;;;8.40;99.90;;;;;;5063704;28;20028;-37
2023/10/01 04:26:22;;;;;;;8.90;3.85;;;8.30;99.90;;;;;;5063315;28;20040;-37
2023/10/01 04:28:54;;;;;;;7.88;4.13;;;8.30;99.90;;;;;;5062466;28;20485;-38
2023/10/01 04:31:42;;;;;;;7.35;3.83;;;8.40;99.90;;;;;;5061288;28;20035;-37
2023/10/01 04:34:10;;;;;;;8.32;4.38;;;8.40;99.90;;;;;;5061864;28;20082;-31
2023/10/01 04:36:38;;;;;;;10.20;4.20;;;8.40;99.90;;;;;;5066590;28;20032;-30
2023/10/01 04:39:04;;;;;;;5.97;4.13;;;8.40;99.90;;;;;;5056644;28;20059;-34
2023/10/01 04:41:29;;;;;;;7.57;3.88;;;8.40;99.90;;;;;;5064466;28;20475;-30
2023/10/01 04:44:07;;;;;;;8.77;4.50;;;8.40;99.90;;;;;;5059639;28;20017;-30
2023/10/01 04:46:37;;;;;;;9.88;4.32;;;8.40;99.90;;;;;;5066154;28;20129;-30
2023/10/01 04:49:26;;;;;;;10.93;4.15;;;8.40;99.90;;;;;;5065041;28;20082;-36
2023/10/01 04:51:55;;;;;;;8.98;4.13;;;8.40;99.90;;;;;;5061633;28;20020;-31
2023/10/01 04:54:22;;;;;;;7.95;3.63;;;8.40;99.90;;;;;;5062444;28;20056;-30
2023/10/01 04:56:48;;;;;;;9.18;4.25;;;8.40;99.90;;;;;;5061567;28;20111;-30
2023/10/01 04:59:15;;;;;;;7.43;4.30;;;8.40;99.90;;;;;;5063871;28;20075;-31
2023/10/01 05:01:41;;;;;;;8.52;4.30;;;8.30;99.90;;;;;;5063173;28;20979;-31
2023/10/01 05:04:11;;;;;;;6.78;3.65;;;8.40;99.90;;;;;;5053702;28;20085;-30
2023/10/01 05:06:40;;;;;;;8.32;4.60;;;8.30;99.90;;;;;;5060496;28;20380;-30
2023/10/01 05:09:07;;;;;;;12.48;5.03;;;8.30;99.90;;;;;;5064290;28;20036;-29
2023/10/01 05:11:33;;;;;;;8.73;4.77;;;8.30;99.90;;;;;;5060867;28;20033;-31
2023/10/01 05:13:59;;;;;;;11.02;5.25;;;8.40;99.90;;;;;;5066232;28;20428;-30
2023/10/01 05:16:31;;;;;;;7.05;4.68;;;8.40;99.90;;;;;;5061597;28;20060;-30
2023/10/01 05:19:09;;;;;;;10.65;5.05;;;8.30;99.90;;;;;;5065748;28;20404;-34
2023/10/01 05:21:49;;;;;;;10.40;4.68;;;8.30;99.90;;;;;;5059261;28;20035;-30
2023/10/01 05:24:35;;;;;;;11.45;5.30;;;8.30;99.90;;;;;;5064266;28;20080;-30
2023/10/01 05:27:02;;;;;;;7.80;4.68;;;8.30;99.90;;;;;;5065007;28;20025;-33
2023/10/01 05:29:29;;;;;;;8.23;4.53;;;8.30;99.90;;;;;;5062349;28;20036;-32
2023/10/01 05:31:56;;;;;;;8.35;4.20;;;8.30;99.90;;;;;;5059208;28;20029;-32
2023/10/01 05:34:23;;;;;;;28.10;6.28;;;8.20;99.90;;;;;;5061671;28;20021;-30
2023/10/01 05:36:52;;;;;;;13.52;5.03;;;8.20;99.90;;;;;;5060240;28;20036;-29
2023/10/01 05:39:20;;;;;;;7.80;4.63;;;8.10;99.90;;;;;;5058837;28;20078;-30
2023/10/01 05:41:46;;;;;;;7.85;4.82;;;8.20;99.90;;;;;;5062127;28;20040;-30
2023/10/01 05:44:12;;;;;;;8.93;3.95;;;8.20;99.90;;;;;;5061157;28;20508;-38
2023/10/01 05:46:38;;;;;;;6.28;3.88;;;8.20;99.90;;;;;;5065435;28;20045;-38
2023/10/01 05:49:03;;;;;;;11.93;4.55;;;8.20;99.90;;;;;;5062829;28;20052;-37
2023/10/01 05:51:45;;;;;;;9.23;4.53;;;8.20;99.90;;;;;;5063153;28;20109;-39
2023/10/01 05:54:18;;;;;;;6.53;4.50;;;8.20;99.90;;;;;;5059152;28;20020;-38
2023/10/01 05:56:47;;;;;;;9.68;4.47;;;8.20;99.90;;;;;;5059352;28;20028;-39
2023/10/01 05:59:14;;;;;;;7.10;4.13;;;8.30;99.90;;;;;;5057604;28;20150;-36
2023/10/01 06:01:41;;;;;;;5.10;3.70;;;8.30;99.90;;;;;;5043715;28;20048;-36
2023/10/01 06:04:12;;;;;;;7.18;3.58;;;8.30;99.90;;;;;;5054600;28;20549;-39
2023/10/01 06:06:42;;;;;;;4.82;3.70;;;8.30;99.90;;;;;;5060981;28;20036;-38
2023/10/01 06:09:14;;;;;;;7.47;4.30;;;8.30;99.90;;;;;;5089675;28;20097;-39
2023/10/01 06:11:56;;;;;;;6.57;4.00;;;8.30;99.90;;;;;;5057579;28;20115;-39
2023/10/01 06:14:39;;;;;;;7.88;4.32;;;8.30;99.90;;;;;;5060653;28;20040;-38
2023/10/01 06:17:06;;;;;;;7.72;4.97;;;8.30;99.90;;;;;;5058236;28;20028;-40
2023/10/01 06:19:33;;;;;;;6.22;4.28;;;8.30;99.90;;;;;;5063090;28;20433;-39
2023/10/01 06:22:12;;;;;;;5.25;3.70;;;8.30;99.90;;;;;;5063228;28;20040;-38
2023/10/01 06:24:46;;;;;;;8.90;5.40;;;8.40;99.90;;;;;;5058513;28;20032;-35
2023/10/01 06:27:13;;;;;;;9.10;4.45;;;8.50;99.90;;;;;;5059961;28;20024;-39
2023/10/01 06:29:49;;;;;;;6.70;3.97;;;8.50;99.90;;;;;;5060394;28;20098;-39
2023/10/01 06:32:24;;;;;;;8.98;4.78;;;8.60;99.90;;;;;;5061944;28;20028;-37
2023/10/01 06:34:57;;;;;;;7.90;4.47;;;8.70;99.90;;;;;;5062320;28;20028;-38
2023/10/01 06:37:25;;;;;;;10.10;5.13;;;8.80;99.90;;;;;;5057155;28;20035;-39
2023/10/01 06:39:51;;;;;;;10.65;4.80;;;8.90;99.90;;;;;;5061153;28;20115;-39
2023/10/01 06:42:19;;;;;;;9.68;5.40;;;9.00;99.90;;;;;;5056512;28;20120;-37
2023/10/01 06:44:48;;;;;;;;;;;9.10;99.90;;;;;;5063131;28;20032;-37
2023/10/01 06:47:14;;;;;;;7.57;4.63;;;9.10;99.90;;;;;;5056303;28;19923;-39
2023/10/01 06:52:34;;;;;;;13.73;5.32;;;9.30;99.90;;;;;;5053713;28;20488;-31
2023/10/01 06:55:01;;;;;;;13.20;5.15;;;9.40;99.90;;;;;;5059694;28;20053;-30
2023/10/01 06:57:28;;;;;;;13.80;5.68;;;9.40;99.90;;;;;;5057878;28;20091;-31
2023/10/01 06:59:56;;;;;;;13.38;5.82;;;9.50;99.90;;;;;;5061383;28;20166;-31
2023/10/01 07:02:23;;;;;;;13.57;6.07;;;9.50;99.90;;;;;;5059296;28;20041;-32
2023/10/01 07:04:56;;;;;;;13.32;6.70;;;9.60;99.90;;;;;;5056623;28;20123;-32
2023/10/01 07:07:26;;;;;;;14.95;6.60;;;9.60;99.90;;;;;;5065734;28;20054;-32
2023/10/01 07:09:56;;;;;;;12.00;6.03;;;9.70;99.90;;;;;;5065517;28;20047;-30
2023/10/01 07:12:23;;;;;;;12.88;6.43;;;9.80;99.90;;;;;;5060318;28;20025;-31
2023/10/01 07:14:53;;;;;;;16.60;6.60;;;9.80;99.90;;;;;;5057071;28;20082;-34
2023/10/01 07:17:24;;;;;;;16.35;6.18;;;9.90;99.90;;;;;;5056085;28;20078;-35
2023/10/01 07:20:00;;;;;;;14.52;6.88;;;10.00;99.90;;;;;;5047815;28;20159;-34
2023/10/01 07:22:34;;;;;;;11.90;6.50;;;10.10;99.90;;;;;;5049584;28;20508;-30
2023/10/01 07:25:02;;;;;;;14.35;6.68;;;10.30;99.90;;;;;;5061517;28;20040;-30
2023/10/01 07:27:28;;;;;;;14.38;7.50;;;10.30;99.90;;;;;;5063800;28;20409;-30
2023/10/01 07:29:54;;;;;;;16.10;7.38;;;10.40;99.90;;;;;;5063851;28;20540;-30
2023/10/01 07:32:22;;;;;;;19.13;7.55;;;10.50;99.90;;;;;;5062176;28;20032;-34
2023/10/01 07:34:55;;;;;;;;;;;10.60;99.90;;;;;;5061979;28;20401;-30
2023/10/01 07:37:25;;;;;;;14.32;6.15;;;10.70;99.90;;;;;;5063739;28;19913;-33
2023/10/01 07:39:55;;;;;;;17.50;7.60;;;10.90;99.90;;;;;;5061446;28;20515;-30
2023/10/01 07:42:25;;;;;;;16.15;7.28;;;10.90;99.90;;;;;;5063526;28;20428;-30
2023/10/01 07:44:52;;;;;;;15.77;7.30;;;11.00;99.90;;;;;;5064115;28;20052;-32
2023/10/01 07:47:31;;;;;;;15.60;7.68;;;11.10;99.90;;;;;;5062249;28;20379;-31
2023/10/01 07:49:58;;;;;;;13.10;7.18;;;11.30;99.90;;;;;;5062609;28;20037;-30
2023/10/01 07:52:24;;;;;;;18.17;7.65;;;11.30;99.90;;;;;;5060299;28;20021;-30
2023/10/01 07:54:50;;;;;;;16.33;7.93;;;11.50;99.90;;;;;;5066064;28;20083;-31
2023/10/01 07:57:17;;;;;;;16.17;7.50;;;11.60;99.90;;;;;;5062976;28;20119;-31
2023/10/01 07:59:46;;;;;;;17.48;8.15;;;11.80;99.90;;;;;;5065115;28;20063;-31
2023/10/01 08:02:21;;;;;;;17.40;7.93;;;12.00;99.90;;;;;;5061698;28;20040;-39
2023/10/01 08:04:57;;;;;;;19.90;10.00;;;12.10;99.90;;;;;;5060899;28;20071;-32
2023/10/01 08:07:30;;;;;;;15.75;7.75;;;12.40;99.90;;;;;;5061482;28;20119;-34
2023/10/01 08:09:59;;;;;;;17.63;8.63;;;12.50;99.90;;;;;;5064025;28;20029;-34
2023/10/01 08:12:29;;;;;;;24.50;9.45;;;12.60;99.90;;;;;;5064969;28;20359;-32
2023/10/01 08:15:29;;;;;;;19.42;8.77;;;12.80;99.90;;;;;;5064053;28;20381;-33
2023/10/01 08:18:26;;;;;;;16.75;8.15;;;13.00;99.90;;;;;;5061130;28;20047;-32
2023/10/01 08:20:58;;;;;;;17.13;7.70;;;13.10;99.90;;;;;;5060097;28;20036;-32
2023/10/01 08:23:33;;;;;;;20.02;10.02;;;13.30;99.90;;;;;;5060435;28;20025;-31
2023/10/01 08:26:03;;;;;;;20.00;9.05;;;13.50;99.90;;;;;;5064139;28;20032;-32
2023/10/01 08:28:43;;;;;;;17.27;8.02;;;13.60;99.90;;;;;;5060894;28;20036;-32
2023/10/01 08:31:43;;;;;;;16.85;8.48;;;13.80;99.90;;;;;;5062314;28;20454;-31
2023/10/01 08:34:22;;;;;;;;;;;13.80;99.90;;;;;;5059962;28;20120;-32
2023/10/01 08:36:57;;;;;;;18.10;7.18;;;14.00;99.90;;;;;;5064615;28;20415;-31
2023/10/01 08:39:36;;;;;;;18.10;7.78;;;14.20;99.90;;;;;;5061529;28;20032;-33
2023/10/01 08:42:09;;;;;;;15.07;7.18;;;14.50;99.90;;;;;;5055835;28;20502;-34
2023/10/01 08:44:47;;;;;;;17.25;7.88;;;14.60;99.90;;;;;;5061852;28;20035;-31
2023/10/01 08:47:22;;;;;;;17.20;7.90;;;14.70;99.90;;;;;;5065741;28;20036;-33
2023/10/01 08:49:51;;;;;;;16.40;8.00;;;14.90;99.90;;;;;;5059378;28;20708;-31
2023/10/01 08:52:21;;;;;;;17.00;7.75;;;15.10;99.90;;;;;;5059623;28;20065;-35
2023/10/01 08:54:49;;;;;;;19.98;7.53;;;15.30;99.90;;;;;;5065442;28;20032;-33
2023/10/01 08:57:17;;;;;;;20.23;8.67;;;15.50;99.90;;;;;;5064798;28;20079;-32
2023/10/01 08:59:46;;;;;;;16.33;7.85;;;15.60;99.90;;;;;;5064215;28;20032;-32
2023/10/01 09:02:16;;;;;;;17.42;7.63;;;15.80;99.90;;;;;;5057449;28;20090;-31
2023/10/01 09:04:45;;;;;;;15.63;7.60;;;15.90;99.90;;;;;;5062035;28;20052;-32
2023/10/01 09:07:20;;;;;;;17.25;7.82;;;16.00;99.90;;;;;;5064499;28;20520;-32
2023/10/01 09:10:05;;;;;;;20.30;7.90;;;16.20;99.90;;;;;;5063294;28;20052;-33
2023/10/01 09:12:35;;;;;;;18.02;8.38;;;16.40;99.90;;;;;;5055063;28;20764;-39
2023/10/01 09:15:05;;;;;;;17.17;7.65;;;16.50;99.90;;;;;;5061184;28;20032;-40
2023/10/01 09:17:40;;;;;;;18.20;7.97;;;16.60;99.90;;;;;;5058353;28;20060;-39
2023/10/01 09:20:08;;;;;;;15.38;6.95;;;16.70;99.90;;;;;;5064586;28;20721;-39
2023/10/01 09:25:21;;;;;;;17.50;7.63;;;17.00;99.90;;;;;;5060314;28;20086;-32
2023/10/01 09:27:57;;;;;;;18.08;8.13;;;17.10;99.90;;;;;;5059761;28;20032;-32
2023/10/01 09:30:31;;;;;;;19.38;7.20;;;17.20;99.90;;;;;;5055941;28;20028;-32
2023/10/01 09:33:04;;;;;;;16.35;7.38;;;17.40;99.90;;;;;;5052675;28;20048;-32
2023/10/01 09:35:49;;;;;;;18.40;7.20;;;17.60;99.90;;;;;;5054473;28;20031;-31
2023/10/01 09:38:18;;;;;;;17.17;7.72;;;17.70;99.90;;;;;;5056643;28;20020;-32
2023/10/01 09:40:51;;;;;;;17.42;7.70;;;17.80;99.90;;;;;;5056549;28;20610;-33
2023/10/01 09:43:30;;;;;;;13.70;7.07;;;18.00;99.90;;;;;;5052420;28;20113;-34
2023/10/01 09:46:03;;;;;;;16.95;7.97;;;18.00;99.90;;;;;;5052880;28;20506;-34
2023/10/01 09:48:34;;;;;;;18.50;7.60;;;18.10;99.90;;;;;;5054581;28;20040;-36
2023/10/01 09:51:13;;;;;;;15.23;7.15;;;18.20;99.90;;;;;;5057399;28;20028;-32
2023/10/01 09:53:48;;;;;;;17.00;7.55;;;18.30;99.90;;;;;;5055720;28;20055;-32
2023/10/01 09:56:29;;;;;;;16.05;6.88;;;18.40;99.90;;;;;;5055107;28;20429;-34
2023/10/01 09:59:07;;;;;;;15.63;6.70;;;18.60;99.90;;;;;;5054404;28;20037;-35
2023/10/01 10:01:38;;;;;;;17.02;7.13;;;18.80;99.90;;;;;;5060807;28;20033;-31
2023/10/01 10:04:11;;;;;;;16.30;7.53;;;19.20;99.90;;;;;;5055643;28;20116;-35
2023/10/01 10:06:39;;;;;;;16.77;7.03;;;19.30;99.90;;;;;;5058445;28;20037;-32
2023/10/01 10:09:08;;;;;;;;;;;19.10;99.90;;;;;;5055331;28;20481;-36
2023/10/01 10:11:40;;;;;;;15.48;6.63;;;19.10;99.90;;;;;;5053943;28;19997;-32
2023/10/01 10:14:27;;;;;;;15.60;7.22;;;19.30;99.90;;;;;;5050729;28;20032;-35
2023/10/01 10:16:57;;;;;;;16.08;5.68;;;19.30;99.90;;;;;;5055484;28;20033;-33
2023/10/01 10:19:23;;;;;;;14.05;6.45;;;19.30;99.90;;;;;;5060413;28;20611;-34
2023/10/01 10:24:35;;;;;;;17.75;6.82;;;19.50;99.90;;;;;;5056489;28;20063;-33
2023/10/01 10:27:08;;;;;;;15.25;6.13;;;19.70;99.90;;;;;;5058206;28;20044;-34
2023/10/01 10:29:46;;;;;;;15.52;6.63;;;19.80;99.90;;;;;;5058089;28;20032;-31
2023/10/01 10:32:15;;;;;;;13.07;6.57;;;20.10;99.90;;;;;;5059695;28;20032;-41
2023/10/01 10:35:03;;;;;;;13.65;6.22;;;20.10;99.90;;;;;;5055322;28;20032;-42
2023/10/01 10:37:35;;;;;;;16.10;6.03;;;20.10;99.90;;;;;;5053305;28;20099;-39
2023/10/01 10:40:22;;;;;;;16.30;6.32;;;20.00;99.90;;;;;;5061275;28;20513;-34
2023/10/01 10:42:57;;;;;;;14.52;5.97;;;19.90;99.90;;;;;;5053743;28;20021;-39
2023/10/01 10:45:23;;;;;;;17.10;6.10;;;20.20;99.90;;;;;;5048671;28;20036;-37
2023/10/01 10:48:04;;;;;;;12.93;5.88;;;20.40;99.90;;;;;;5050568;28;20080;-38
2023/10/01 10:50:57;;;;;;;16.33;5.65;;;20.10;99.90;;;;;;5051364;28;20108;-36
2023/10/01 10:53:23;;;;;;;16.58;6.30;;;20.30;99.90;;;;;;5063197;28;20028;-38
2023/10/01 10:56:02;;;;;;;15.35;5.32;;;20.30;99.90;;;;;;5046575;28;20097;-36
2023/10/01 10:58:40;;;;;;;15.35;5.93;;;20.40;99.90;;;;;;5053296;28;20455;-34
2023/10/01 11:01:16;;;;;;;15.10;5.50;;;20.50;99.90;;;;;;5055484;28;20534;-39
2023/10/01 11:03:44;;;;;;;15.63;6.57;;;20.60;99.90;;;;;;5053721;28;20407;-37
2023/10/01 11:06:17;;;;;;;15.13;6.93;;;20.60;99.90;;;;;;5056658;28;20041;-37
2023/10/01 11:08:50;;;;;;;13.15;5.32;;;20.50;99.90;;;;;;5054307;28;20029;-38
2023/10/01 11:11:27;;;;;;;13.57;5.45;;;20.30;99.90;;;;;;5054907;28;20421;-39
2023/10/01 11:14:00;;;;;;;13.88;5.32;;;20.40;99.90;;;;;;5049142;28;20044;-39
2023/10/01 11:16:37;;;;;;;15.95;5.30;;;20.40;99.90;;;;;;5053155;28;20025;-39
2023/10/01 11:19:14;;;;;;;14.25;5.40;;;20.50;99.90;;;;;;5051282;28;20072;-34
2023/10/01 11:21:54;;;;;;;12.07;4.93;;;20.40;99.90;;;;;;5055147;28;20047;-35
2023/10/01 11:24:40;;;;;;;15.75;5.72;;;20.50;99.90;;;;;;5060695;28;20017;-37
2023/10/01 11:30:17;;;;;;;10.57;4.78;;;20.60;99.90;;;;;;5052435;28;20044;-36
2023/10/01 11:33:12;;;;;;;14.85;5.70;;;20.40;99.90;;;;;;5053511;28;20088;-39
2023/10/01 11:35:41;;;;;;;14.95;6.10;;;20.50;99.90;;;;;;5056980;28;20783;-37
2023/10/01 11:38:18;;;;;;;13.05;5.20;;;20.50;99.90;;;;;;5053510;28;20028;-38
2023/10/01 11:43:40;;;;;;;12.45;5.13;;;20.50;99.90;;;;;;5054426;28;21012;-34
2023/10/01 11:46:20;;;;;;;12.38;5.30;;;20.60;99.90;;;;;;5056232;28;20083;-38
2023/10/01 11:49:04;;;;;;;15.75;5.63;;;20.60;99.90;;;;;;5050760;28;20039;-40
2023/10/01 11:51:54;;;;;;;13.35;5.38;;;20.60;99.90;;;;;;5055618;28;20206;-38
2023/10/01 11:54:25;;;;;;;12.27;4.68;;;20.60;99.90;;;;;;5057703;28;20029;-33
2023/10/01 11:57:07;;;;;;;13.60;5.57;;;20.70;99.90;;;;;;5055679;28;20509;-35
2023/10/01 11:59:35;;;;;;;13.13;5.18;;;20.70;99.90;;;;;;5059191;28;20032;-31
2023/10/01 12:02:20;;;;;;;;;;;20.70;99.90;;;;;;5057675;28;20040;-31
2023/10/01 12:04:56;;;;;;;16.08;5.47;;;20.70;99.90;;;;;;5063550;28;19920;-31
2023/10/01 12:07:24;;;;;;;14.38;5.47;;;20.70;99.90;;;;;;5059022;28;20017;-32
2023/10/01 12:09:51;;;;;;;12.52;5.13;;;20.70;99.90;;;;;;5056982;28;20109;-33
2023/10/01 12:12:25;;;;;;;11.77;5.45;;;20.70;99.90;;;;;;5061434;28;20024;-34
2023/10/01 12:15:33;;;;;;;13.52;5.30;;;20.70;99.90;;;;;;5061328;28;20025;-32
2023/10/01 12:17:46;;;;;;;13.48;5.70;;;20.70;99.90;;;;;;5061305;28;20810;-32
2023/10/01 12:20:29;;;;;;;12.23;5.15;;;20.60;99.90;;;;;;5064543;28;20025;-30
2023/10/01 12:23:11;;;;;;;13.38;5.20;;;20.70;99.90;;;;;;5062930;28;20629;-35
2023/10/01 12:25:58;;;;;;;11.10;4.65;;;20.70;99.90;;;;;;5059745;28;20029;-32
2023/10/01 12:28:28;;;;;;;13.05;5.07;;;20.80;99.90;;;;;;5057201;28;20031;-31
2023/10/01 12:31:00;;;;;;;12.50;5.03;;;21.00;99.90;;;;;;5058235;28;20051;-32
2023/10/01 12:33:40;;;;;;;12.27;5.15;;;21.10;99.90;;;;;;5059091;28;20616;-32
2023/10/01 12:39:16;;;;;;;13.15;5.82;;;21.00;99.90;;;;;;5059147;28;20130;-36
2023/10/01 12:41:47;;;;;;;15.38;5.80;;;21.00;99.90;;;;;;5061211;28;20123;-33
2023/10/01 12:44:28;;;;;;;13.95;5.15;;;21.10;99.90;;;;;;5056616;28;20040;-32
2023/10/01 12:47:01;;;;;;;11.82;4.93;;;21.20;99.90;;;;;;5062931;28;20040;-33
2023/10/01 12:49:28;;;;;;;13.30;5.05;;;21.10;99.90;;;;;;5057609;28;20056;-33
2023/10/01 12:51:54;;;;;;;11.73;5.00;;;21.20;99.90;;;;;;5058482;28;20565;-32
2023/10/01 12:54:26;;;;;;;16.90;5.57;;;21.20;99.90;;;;;;5058089;28;20040;-32
2023/10/01 12:57:02;;;;;;;13.93;5.93;;;21.30;99.90;;;;;;5058181;28;20044;-31
2023/10/01 12:59:44;;;;;;;14.60;5.97;;;21.20;99.90;;;;;;5058430;28;20134;-33
2023/10/01 13:05:16;;;;;;;13.95;5.13;;;21.20;99.90;;;;;;5054952;28;20028;-36
2023/10/01 13:07:37;;;;;;;12.43;5.37;;;21.20;99.90;;;;;;5054058;28;20037;-39
2023/10/01 13:10:06;;;;;;;13.30;5.22;;;21.10;99.90;;;;;;5056268;28;20694;-37
2023/10/01 13:12:38;;;;;;;13.73;5.20;;;21.10;99.90;;;;;;5052832;28;20067;-35
2023/10/01 13:15:14;;;;;;;12.77;5.80;;;21.10;99.90;;;;;;5056779;28;20059;-39
2023/10/01 13:17:43;;;;;;;13.88;5.82;;;21.20;99.90;;;;;;5053565;28;20058;-33
2023/10/01 13:20:25;;;;;;;16.58;6.05;;;21.40;99.90;;;;;;5056261;28;20033;-37
2023/10/01 13:23:07;;;;;;;12.13;5.32;;;21.50;99.90;;;;;;5054172;28;20032;-37
2023/10/01 13:25:34;;;;;;;15.88;6.53;;;21.60;99.90;;;;;;5054975;28;20029;-36
2023/10/01 13:28:04;;;;;;;12.50;5.50;;;21.70;99.90;;;;;;5055761;28;20028;-37
2023/10/01 13:30:31;;;;;;;10.63;5.03;;;21.80;99.90;;;;;;5053999;28;21134;-37
2023/10/01 13:33:14;;;;;;;13.88;5.57;;;21.60;99.90;;;;;;5056867;28;20076;-38
2023/10/01 13:35:52;;;;;;;13.93;6.07;;;21.60;99.90;;;;;;5059762;28;20108;-36
2023/10/01 13:38:37;;;;;;;12.95;5.90;;;21.70;99.90;;;;;;5052413;28;20124;-38
2023/10/01 14:10:54;;;;;;;11.57;5.13;;;22.10;99.90;;;;;;5065606;28;20035;-29
2023/10/01 14:13:29;;;;;;;13.25;5.50;;;22.00;99.90;;;;;;5065304;28;20021;-35
2023/10/01 14:16:53;;;;;;;10.85;4.88;;;21.90;99.90;;;;;;5058469;28;20026;-38